sensor_id;sensor_type;location;lat;lon;timestamp;P1;durP1;ratioP1;P2;durP2;ratioP2
19664;SDS011;9980;51.020;7.772;2023-12-22T00:00:23;7.17;;;2.90;;
19664;SDS011;9980;51.020;7.772;2023-12-22T00:02:50;3.20;;;2.57;;
19664;SDS011;9980;51.020;7.772;2023-12-22T00:05:16;3.73;;;2.90;;
19664;SDS011;9980;51.020;7.772;2023-12-22T00:07:43;3.63;;;2.70;;
19664;SDS011;9980;51.020;7.772;2023-12-22T00:10:11;4.27;;;2.60;;
19664;SDS011;9980;51.020;7.772;2023-12-22T00:12:38;6.90;;;3.80;;
19664;SDS011;9980;51.020;7.772;2023-12-22T00:15:05;6.30;;;2.90;;
19664;SDS011;9980;51.020;7.772;2023-12-22T00:17:32;5.03;;;3.10;;
19664;SDS011;9980;51.020;7.772;2023-12-22T00:19:59;6.70;;;2.70;;
19664;SDS011;9980;51.020;7.772;2023-12-22T00:22:29;4.47;;;2.53;;
19664;SDS011;9980;51.020;7.772;2023-12-22T00:24:56;2.80;;;2.60;;
19664;SDS011;9980;51.020;7.772;2023-12-22T00:27:23;4.47;;;3.03;;
19664;SDS011;9980;51.020;7.772;2023-12-22T00:29:50;3.97;;;2.60;;
19664;SDS011;9980;51.020;7.772;2023-12-22T00:32:17;7.47;;;2.93;;
19664;SDS011;9980;51.020;7.772;2023-12-22T00:34:44;4.63;;;2.73;;
19664;SDS011;9980;51.020;7.772;2023-12-22T00:37:11;6.10;;;2.93;;
19664;SDS011;9980;51.020;7.772;2023-12-22T00:39:38;4.37;;;3.00;;
19664;SDS011;9980;51.020;7.772;2023-12-22T00:42:05;4.17;;;3.00;;
19664;SDS011;9980;51.020;7.772;2023-12-22T00:44:32;6.30;;;2.80;;
19664;SDS011;9980;51.020;7.772;2023-12-22T00:46:59;5.10;;;2.83;;
19664;SDS011;9980;51.020;7.772;2023-12-22T00:49:26;8.87;;;3.53;;
19664;SDS011;9980;51.020;7.772;2023-12-22T00:51:53;5.87;;;2.80;;
19664;SDS011;9980;51.020;7.772;2023-12-22T00:54:20;5.40;;;3.10;;
19664;SDS011;9980;51.020;7.772;2023-12-22T00:56:47;5.70;;;2.90;;
19664;SDS011;9980;51.020;7.772;2023-12-22T00:59:14;6.93;;;3.30;;
19664;SDS011;9980;51.020;7.772;2023-12-22T01:01:41;5.90;;;3.70;;
19664;SDS011;9980;51.020;7.772;2023-12-22T01:04:08;6.10;;;3.20;;
19664;SDS011;9980;51.020;7.772;2023-12-22T01:06:38;6.50;;;3.27;;
19664;SDS011;9980;51.020;7.772;2023-12-22T01:09:06;5.77;;;3.13;;
19664;SDS011;9980;51.020;7.772;2023-12-22T01:11:33;3.60;;;2.63;;
19664;SDS011;9980;51.020;7.772;2023-12-22T01:14:00;4.50;;;2.90;;
19664;SDS011;9980;51.020;7.772;2023-12-22T01:16:27;3.80;;;2.83;;
19664;SDS011;9980;51.020;7.772;2023-12-22T01:18:54;4.63;;;2.87;;
19664;SDS011;9980;51.020;7.772;2023-12-22T01:21:21;6.00;;;3.20;;
19664;SDS011;9980;51.020;7.772;2023-12-22T01:23:48;6.23;;;3.23;;
19664;SDS011;9980;51.020;7.772;2023-12-22T01:26:15;6.77;;;3.50;;
19664;SDS011;9980;51.020;7.772;2023-12-22T01:28:42;5.73;;;3.63;;
19664;SDS011;9980;51.020;7.772;2023-12-22T01:31:09;6.70;;;3.80;;
19664;SDS011;9980;51.020;7.772;2023-12-22T01:33:35;4.43;;;3.20;;
19664;SDS011;9980;51.020;7.772;2023-12-22T01:36:02;8.00;;;3.47;;
19664;SDS011;9980;51.020;7.772;2023-12-22T01:38:30;8.17;;;3.70;;
19664;SDS011;9980;51.020;7.772;2023-12-22T01:40:56;9.20;;;3.50;;
19664;SDS011;9980;51.020;7.772;2023-12-22T01:43:24;5.53;;;3.60;;
19664;SDS011;9980;51.020;7.772;2023-12-22T01:45:52;8.23;;;3.50;;
19664;SDS011;9980;51.020;7.772;2023-12-22T01:48:26;9.30;;;3.77;;
19664;SDS011;9980;51.020;7.772;2023-12-22T01:50:55;5.70;;;3.50;;
19664;SDS011;9980;51.020;7.772;2023-12-22T01:53:25;7.90;;;3.23;;
19664;SDS011;9980;51.020;7.772;2023-12-22T01:55:54;6.70;;;3.37;;
19664;SDS011;9980;51.020;7.772;2023-12-22T01:58:23;4.07;;;3.00;;
19664;SDS011;9980;51.020;7.772;2023-12-22T02:00:54;5.30;;;3.47;;
19664;SDS011;9980;51.020;7.772;2023-12-22T02:03:22;6.50;;;3.10;;
19664;SDS011;9980;51.020;7.772;2023-12-22T02:05:50;3.93;;;2.90;;
19664;SDS011;9980;51.020;7.772;2023-12-22T02:08:17;4.27;;;3.10;;
19664;SDS011;9980;51.020;7.772;2023-12-22T02:10:45;6.30;;;2.97;;
19664;SDS011;9980;51.020;7.772;2023-12-22T02:13:12;3.13;;;2.83;;
19664;SDS011;9980;51.020;7.772;2023-12-22T02:15:39;8.73;;;3.17;;
19664;SDS011;9980;51.020;7.772;2023-12-22T02:18:08;3.33;;;2.80;;
19664;SDS011;9980;51.020;7.772;2023-12-22T02:20:53;4.10;;;3.53;;
19664;SDS011;9980;51.020;7.772;2023-12-22T02:23:20;3.67;;;2.77;;
19664;SDS011;9980;51.020;7.772;2023-12-22T02:25:47;3.30;;;2.50;;
19664;SDS011;9980;51.020;7.772;2023-12-22T02:28:22;4.77;;;2.50;;
19664;SDS011;9980;51.020;7.772;2023-12-22T02:30:55;2.70;;;2.50;;
19664;SDS011;9980;51.020;7.772;2023-12-22T02:33:43;2.87;;;2.60;;
19664;SDS011;9980;51.020;7.772;2023-12-22T02:36:13;2.90;;;2.70;;
19664;SDS011;9980;51.020;7.772;2023-12-22T02:38:43;2.83;;;2.60;;
19664;SDS011;9980;51.020;7.772;2023-12-22T02:41:12;3.33;;;2.50;;
19664;SDS011;9980;51.020;7.772;2023-12-22T02:43:40;2.63;;;2.43;;
19664;SDS011;9980;51.020;7.772;2023-12-22T02:46:13;2.80;;;2.60;;
19664;SDS011;9980;51.020;7.772;2023-12-22T02:48:41;2.70;;;2.50;;
19664;SDS011;9980;51.020;7.772;2023-12-22T02:51:08;7.07;;;3.10;;
19664;SDS011;9980;51.020;7.772;2023-12-22T02:53:35;2.90;;;2.70;;
19664;SDS011;9980;51.020;7.772;2023-12-22T02:56:02;2.87;;;2.67;;
19664;SDS011;9980;51.020;7.772;2023-12-22T02:58:29;2.73;;;2.53;;
19664;SDS011;9980;51.020;7.772;2023-12-22T03:00:56;3.67;;;2.70;;
19664;SDS011;9980;51.020;7.772;2023-12-22T03:03:23;3.10;;;2.90;;
19664;SDS011;9980;51.020;7.772;2023-12-22T03:05:49;2.60;;;2.50;;
19664;SDS011;9980;51.020;7.772;2023-12-22T03:08:16;2.83;;;2.60;;
19664;SDS011;9980;51.020;7.772;2023-12-22T03:10:43;2.73;;;2.60;;
19664;SDS011;9980;51.020;7.772;2023-12-22T03:13:10;3.10;;;2.80;;
19664;SDS011;9980;51.020;7.772;2023-12-22T03:15:37;3.30;;;2.67;;
19664;SDS011;9980;51.020;7.772;2023-12-22T03:18:04;2.97;;;2.77;;
19664;SDS011;9980;51.020;7.772;2023-12-22T03:20:31;3.50;;;2.83;;
19664;SDS011;9980;51.020;7.772;2023-12-22T03:22:58;2.80;;;2.70;;
19664;SDS011;9980;51.020;7.772;2023-12-22T03:25:25;4.03;;;2.80;;
19664;SDS011;9980;51.020;7.772;2023-12-22T03:27:52;3.10;;;2.90;;
19664;SDS011;9980;51.020;7.772;2023-12-22T03:30:19;2.90;;;2.70;;
19664;SDS011;9980;51.020;7.772;2023-12-22T03:32:46;3.00;;;2.80;;
19664;SDS011;9980;51.020;7.772;2023-12-22T03:35:13;3.33;;;3.03;;
19664;SDS011;9980;51.020;7.772;2023-12-22T03:37:40;2.97;;;2.73;;
19664;SDS011;9980;51.020;7.772;2023-12-22T03:40:07;4.43;;;3.00;;
19664;SDS011;9980;51.020;7.772;2023-12-22T03:42:35;3.23;;;3.00;;
19664;SDS011;9980;51.020;7.772;2023-12-22T03:45:02;3.27;;;2.90;;
19664;SDS011;9980;51.020;7.772;2023-12-22T03:47:30;6.17;;;3.07;;
19664;SDS011;9980;51.020;7.772;2023-12-22T03:49:57;3.07;;;2.80;;
19664;SDS011;9980;51.020;7.772;2023-12-22T03:52:24;4.77;;;2.70;;
19664;SDS011;9980;51.020;7.772;2023-12-22T03:54:50;2.47;;;2.37;;
19664;SDS011;9980;51.020;7.772;2023-12-22T03:57:17;2.90;;;2.70;;
19664;SDS011;9980;51.020;7.772;2023-12-22T03:59:44;3.00;;;2.80;;
19664;SDS011;9980;51.020;7.772;2023-12-22T04:02:11;2.70;;;2.57;;
19664;SDS011;9980;51.020;7.772;2023-12-22T04:04:38;4.43;;;2.70;;
19664;SDS011;9980;51.020;7.772;2023-12-22T04:07:05;2.90;;;2.70;;
19664;SDS011;9980;51.020;7.772;2023-12-22T04:09:32;2.70;;;2.60;;
19664;SDS011;9980;51.020;7.772;2023-12-22T04:11:59;2.97;;;2.67;;
19664;SDS011;9980;51.020;7.772;2023-12-22T04:14:26;3.00;;;2.80;;
19664;SDS011;9980;51.020;7.772;2023-12-22T04:16:53;3.07;;;2.77;;
19664;SDS011;9980;51.020;7.772;2023-12-22T04:19:20;3.13;;;2.93;;
19664;SDS011;9980;51.020;7.772;2023-12-22T04:21:47;3.20;;;3.00;;
19664;SDS011;9980;51.020;7.772;2023-12-22T04:24:14;3.80;;;3.40;;
19664;SDS011;9980;51.020;7.772;2023-12-22T04:26:41;7.47;;;3.60;;
19664;SDS011;9980;51.020;7.772;2023-12-22T04:29:08;5.70;;;3.87;;
19664;SDS011;9980;51.020;7.772;2023-12-22T04:31:35;3.83;;;3.53;;
19664;SDS011;9980;51.020;7.772;2023-12-22T04:34:02;5.17;;;3.20;;
19664;SDS011;9980;51.020;7.772;2023-12-22T04:36:29;5.87;;;4.27;;
19664;SDS011;9980;51.020;7.772;2023-12-22T04:38:56;4.70;;;3.77;;
19664;SDS011;9980;51.020;7.772;2023-12-22T04:41:23;4.20;;;3.80;;
19664;SDS011;9980;51.020;7.772;2023-12-22T04:43:49;5.90;;;3.80;;
19664;SDS011;9980;51.020;7.772;2023-12-22T04:46:16;5.23;;;4.40;;
19664;SDS011;9980;51.020;7.772;2023-12-22T04:48:43;5.60;;;4.27;;
19664;SDS011;9980;51.020;7.772;2023-12-22T04:51:10;7.37;;;4.57;;
19664;SDS011;9980;51.020;7.772;2023-12-22T04:53:37;7.27;;;4.40;;
19664;SDS011;9980;51.020;7.772;2023-12-22T04:56:04;8.73;;;3.80;;
19664;SDS011;9980;51.020;7.772;2023-12-22T04:58:31;8.63;;;4.20;;
19664;SDS011;9980;51.020;7.772;2023-12-22T05:00:58;8.73;;;4.37;;
19664;SDS011;9980;51.020;7.772;2023-12-22T05:03:25;8.53;;;4.43;;
19664;SDS011;9980;51.020;7.772;2023-12-22T05:05:52;8.53;;;4.50;;
19664;SDS011;9980;51.020;7.772;2023-12-22T05:08:19;13.43;;;4.67;;
19664;SDS011;9980;51.020;7.772;2023-12-22T05:10:46;8.73;;;4.10;;
19664;SDS011;9980;51.020;7.772;2023-12-22T05:13:13;8.27;;;4.57;;
19664;SDS011;9980;51.020;7.772;2023-12-22T05:15:40;11.63;;;4.13;;
19664;SDS011;9980;51.020;7.772;2023-12-22T05:18:07;12.73;;;4.77;;
19664;SDS011;9980;51.020;7.772;2023-12-22T05:20:35;6.03;;;3.80;;
19664;SDS011;9980;51.020;7.772;2023-12-22T05:23:01;9.67;;;4.00;;
19664;SDS011;9980;51.020;7.772;2023-12-22T05:25:29;6.23;;;3.73;;
19664;SDS011;9980;51.020;7.772;2023-12-22T05:27:56;8.90;;;4.03;;
19664;SDS011;9980;51.020;7.772;2023-12-22T05:30:23;9.67;;;5.10;;
19664;SDS011;9980;51.020;7.772;2023-12-22T05:32:50;11.13;;;3.90;;
19664;SDS011;9980;51.020;7.772;2023-12-22T05:35:17;5.73;;;3.57;;
19664;SDS011;9980;51.020;7.772;2023-12-22T05:37:44;4.97;;;3.40;;
19664;SDS011;9980;51.020;7.772;2023-12-22T05:40:11;7.73;;;3.87;;
19664;SDS011;9980;51.020;7.772;2023-12-22T05:42:38;9.40;;;4.60;;
19664;SDS011;9980;51.020;7.772;2023-12-22T05:45:05;5.13;;;3.50;;
19664;SDS011;9980;51.020;7.772;2023-12-22T05:47:34;5.70;;;3.80;;
19664;SDS011;9980;51.020;7.772;2023-12-22T05:50:01;9.27;;;3.73;;
19664;SDS011;9980;51.020;7.772;2023-12-22T05:52:29;10.57;;;4.00;;
19664;SDS011;9980;51.020;7.772;2023-12-22T05:54:56;4.23;;;3.63;;
19664;SDS011;9980;51.020;7.772;2023-12-22T05:57:24;6.03;;;3.30;;
19664;SDS011;9980;51.020;7.772;2023-12-22T05:59:52;4.73;;;3.23;;
19664;SDS011;9980;51.020;7.772;2023-12-22T06:02:19;3.67;;;3.27;;
19664;SDS011;9980;51.020;7.772;2023-12-22T06:04:45;3.53;;;3.23;;
19664;SDS011;9980;51.020;7.772;2023-12-22T06:07:12;5.27;;;3.10;;
19664;SDS011;9980;51.020;7.772;2023-12-22T06:09:39;4.53;;;3.20;;
19664;SDS011;9980;51.020;7.772;2023-12-22T06:12:06;4.60;;;3.17;;
19664;SDS011;9980;51.020;7.772;2023-12-22T06:14:37;6.43;;;2.93;;
19664;SDS011;9980;51.020;7.772;2023-12-22T06:17:03;3.63;;;3.30;;
19664;SDS011;9980;51.020;7.772;2023-12-22T06:19:30;3.40;;;3.00;;
19664;SDS011;9980;51.020;7.772;2023-12-22T06:21:57;4.87;;;3.30;;
19664;SDS011;9980;51.020;7.772;2023-12-22T06:24:26;4.77;;;3.20;;
19664;SDS011;9980;51.020;7.772;2023-12-22T06:26:53;5.40;;;3.20;;
19664;SDS011;9980;51.020;7.772;2023-12-22T06:29:20;3.43;;;3.20;;
19664;SDS011;9980;51.020;7.772;2023-12-22T06:31:47;5.87;;;3.70;;
19664;SDS011;9980;51.020;7.772;2023-12-22T06:34:17;7.90;;;3.77;;
19664;SDS011;9980;51.020;7.772;2023-12-22T06:36:44;6.83;;;3.33;;
19664;SDS011;9980;51.020;7.772;2023-12-22T06:39:11;3.90;;;3.60;;
19664;SDS011;9980;51.020;7.772;2023-12-22T06:41:38;4.67;;;3.50;;
19664;SDS011;9980;51.020;7.772;2023-12-22T06:44:04;4.80;;;3.50;;
19664;SDS011;9980;51.020;7.772;2023-12-22T06:46:32;6.63;;;3.23;;
19664;SDS011;9980;51.020;7.772;2023-12-22T06:48:59;3.83;;;3.53;;
19664;SDS011;9980;51.020;7.772;2023-12-22T06:51:30;5.43;;;3.50;;
19664;SDS011;9980;51.020;7.772;2023-12-22T06:54:01;6.10;;;3.43;;
19664;SDS011;9980;51.020;7.772;2023-12-22T06:56:31;4.67;;;3.30;;
19664;SDS011;9980;51.020;7.772;2023-12-22T06:59:00;14.97;;;3.50;;
19664;SDS011;9980;51.020;7.772;2023-12-22T07:01:31;6.90;;;3.47;;
19664;SDS011;9980;51.020;7.772;2023-12-22T07:04:02;4.67;;;3.40;;
19664;SDS011;9980;51.020;7.772;2023-12-22T07:06:31;6.37;;;3.30;;
19664;SDS011;9980;51.020;7.772;2023-12-22T07:11:51;5.77;;;3.47;;
19664;SDS011;9980;51.020;7.772;2023-12-22T07:14:23;5.57;;;4.00;;
19664;SDS011;9980;51.020;7.772;2023-12-22T07:16:50;7.53;;;3.97;;
19664;SDS011;9980;51.020;7.772;2023-12-22T07:19:17;9.87;;;5.63;;
19664;SDS011;9980;51.020;7.772;2023-12-22T07:21:44;15.13;;;9.33;;
19664;SDS011;9980;51.020;7.772;2023-12-22T07:24:13;94.83;;;45.50;;
19664;SDS011;9980;51.020;7.772;2023-12-22T07:26:41;73.47;;;37.60;;
19664;SDS011;9980;51.020;7.772;2023-12-22T07:29:10;32.53;;;16.87;;
19664;SDS011;9980;51.020;7.772;2023-12-22T07:31:37;61.77;;;34.17;;
19664;SDS011;9980;51.020;7.772;2023-12-22T07:34:05;25.13;;;13.03;;
19664;SDS011;9980;51.020;7.772;2023-12-22T07:36:34;12.03;;;7.00;;
19664;SDS011;9980;51.020;7.772;2023-12-22T07:39:11;7.80;;;4.93;;
19664;SDS011;9980;51.020;7.772;2023-12-22T07:41:37;9.93;;;4.40;;
19664;SDS011;9980;51.020;7.772;2023-12-22T07:44:04;12.97;;;4.40;;
19664;SDS011;9980;51.020;7.772;2023-12-22T07:46:33;10.40;;;6.60;;
19664;SDS011;9980;51.020;7.772;2023-12-22T07:49:00;59.43;;;30.37;;
19664;SDS011;9980;51.020;7.772;2023-12-22T07:51:28;39.30;;;12.50;;
19664;SDS011;9980;51.020;7.772;2023-12-22T07:53:55;41.50;;;20.93;;
19664;SDS011;9980;51.020;7.772;2023-12-22T07:56:21;24.70;;;10.53;;
19664;SDS011;9980;51.020;7.772;2023-12-22T07:58:49;13.97;;;9.07;;
19664;SDS011;9980;51.020;7.772;2023-12-22T08:01:15;20.53;;;8.60;;
19664;SDS011;9980;51.020;7.772;2023-12-22T08:03:43;20.70;;;8.27;;
19664;SDS011;9980;51.020;7.772;2023-12-22T08:06:10;21.13;;;8.60;;
19664;SDS011;9980;51.020;7.772;2023-12-22T08:08:38;16.20;;;8.40;;
19664;SDS011;9980;51.020;7.772;2023-12-22T08:11:04;13.03;;;8.23;;
19664;SDS011;9980;51.020;7.772;2023-12-22T08:13:31;14.03;;;7.70;;
19664;SDS011;9980;51.020;7.772;2023-12-22T08:15:58;18.33;;;9.20;;
19664;SDS011;9980;51.020;7.772;2023-12-22T08:18:25;12.67;;;7.80;;
19664;SDS011;9980;51.020;7.772;2023-12-22T08:20:52;24.73;;;12.57;;
19664;SDS011;9980;51.020;7.772;2023-12-22T08:23:19;14.53;;;8.30;;
19664;SDS011;9980;51.020;7.772;2023-12-22T08:25:48;12.50;;;7.47;;
19664;SDS011;9980;51.020;7.772;2023-12-22T08:28:16;14.03;;;7.57;;
19664;SDS011;9980;51.020;7.772;2023-12-22T08:30:43;13.37;;;6.37;;
19664;SDS011;9980;51.020;7.772;2023-12-22T08:33:09;10.23;;;5.83;;
19664;SDS011;9980;51.020;7.772;2023-12-22T08:35:37;11.70;;;5.57;;
19664;SDS011;9980;51.020;7.772;2023-12-22T08:38:03;10.07;;;5.07;;
19664;SDS011;9980;51.020;7.772;2023-12-22T08:40:31;8.87;;;4.50;;
19664;SDS011;9980;51.020;7.772;2023-12-22T08:42:58;15.17;;;5.10;;
19664;SDS011;9980;51.020;7.772;2023-12-22T08:45:28;14.53;;;6.67;;
19664;SDS011;9980;51.020;7.772;2023-12-22T08:47:56;37.00;;;18.23;;
19664;SDS011;9980;51.020;7.772;2023-12-22T08:50:23;28.73;;;16.37;;
19664;SDS011;9980;51.020;7.772;2023-12-22T08:52:51;16.90;;;8.60;;
19664;SDS011;9980;51.020;7.772;2023-12-22T08:55:18;13.97;;;5.63;;
19664;SDS011;9980;51.020;7.772;2023-12-22T08:57:45;11.23;;;5.53;;
19664;SDS011;9980;51.020;7.772;2023-12-22T09:00:24;9.93;;;5.00;;
19664;SDS011;9980;51.020;7.772;2023-12-22T09:02:51;15.93;;;4.43;;
19664;SDS011;9980;51.020;7.772;2023-12-22T09:05:20;12.27;;;4.23;;
19664;SDS011;9980;51.020;7.772;2023-12-22T09:07:48;6.80;;;4.20;;
19664;SDS011;9980;51.020;7.772;2023-12-22T09:10:15;7.97;;;4.30;;
19664;SDS011;9980;51.020;7.772;2023-12-22T09:12:42;11.63;;;4.60;;
19664;SDS011;9980;51.020;7.772;2023-12-22T09:15:09;9.83;;;4.67;;
19664;SDS011;9980;51.020;7.772;2023-12-22T09:17:36;13.77;;;5.20;;
19664;SDS011;9980;51.020;7.772;2023-12-22T09:20:03;12.47;;;4.73;;
19664;SDS011;9980;51.020;7.772;2023-12-22T09:22:30;11.50;;;5.70;;
19664;SDS011;9980;51.020;7.772;2023-12-22T09:24:58;17.40;;;5.53;;
19664;SDS011;9980;51.020;7.772;2023-12-22T09:27:24;13.23;;;4.73;;
19664;SDS011;9980;51.020;7.772;2023-12-22T09:29:56;17.93;;;5.17;;
19664;SDS011;9980;51.020;7.772;2023-12-22T09:32:23;10.00;;;4.80;;
19664;SDS011;9980;51.020;7.772;2023-12-22T09:34:50;12.80;;;5.27;;
19664;SDS011;9980;51.020;7.772;2023-12-22T09:37:17;11.60;;;5.10;;
19664;SDS011;9980;51.020;7.772;2023-12-22T09:39:44;13.10;;;5.20;;
19664;SDS011;9980;51.020;7.772;2023-12-22T09:42:11;14.00;;;5.93;;
19664;SDS011;9980;51.020;7.772;2023-12-22T09:44:38;10.67;;;4.90;;
19664;SDS011;9980;51.020;7.772;2023-12-22T09:47:08;11.57;;;4.87;;
19664;SDS011;9980;51.020;7.772;2023-12-22T09:49:38;14.43;;;5.53;;
19664;SDS011;9980;51.020;7.772;2023-12-22T09:52:08;13.77;;;4.73;;
19664;SDS011;9980;51.020;7.772;2023-12-22T09:54:36;11.27;;;6.07;;
19664;SDS011;9980;51.020;7.772;2023-12-22T09:57:04;13.37;;;5.57;;
19664;SDS011;9980;51.020;7.772;2023-12-22T09:59:48;11.40;;;5.40;;
19664;SDS011;9980;51.020;7.772;2023-12-22T10:02:18;15.90;;;6.37;;
19664;SDS011;9980;51.020;7.772;2023-12-22T10:04:45;17.97;;;5.90;;
19664;SDS011;9980;51.020;7.772;2023-12-22T10:07:13;14.97;;;5.80;;
19664;SDS011;9980;51.020;7.772;2023-12-22T10:09:42;13.43;;;6.47;;
19664;SDS011;9980;51.020;7.772;2023-12-22T10:12:13;16.00;;;7.57;;
19664;SDS011;9980;51.020;7.772;2023-12-22T10:14:41;17.10;;;7.07;;
19664;SDS011;9980;51.020;7.772;2023-12-22T10:17:09;20.37;;;7.17;;
19664;SDS011;9980;51.020;7.772;2023-12-22T10:19:36;17.87;;;8.60;;
19664;SDS011;9980;51.020;7.772;2023-12-22T10:22:05;20.53;;;8.67;;
19664;SDS011;9980;51.020;7.772;2023-12-22T10:24:42;24.47;;;9.00;;
19664;SDS011;9980;51.020;7.772;2023-12-22T10:27:14;12.83;;;7.70;;
19664;SDS011;9980;51.020;7.772;2023-12-22T10:29:48;14.80;;;7.00;;
19664;SDS011;9980;51.020;7.772;2023-12-22T10:32:20;15.67;;;6.87;;
19664;SDS011;9980;51.020;7.772;2023-12-22T10:34:48;10.93;;;5.83;;
19664;SDS011;9980;51.020;7.772;2023-12-22T10:37:17;12.63;;;5.87;;
19664;SDS011;9980;51.020;7.772;2023-12-22T10:39:44;17.77;;;6.73;;
19664;SDS011;9980;51.020;7.772;2023-12-22T10:42:15;9.37;;;6.17;;
19664;SDS011;9980;51.020;7.772;2023-12-22T10:44:42;15.13;;;6.63;;
19664;SDS011;9980;51.020;7.772;2023-12-22T10:47:09;11.50;;;6.00;;
19664;SDS011;9980;51.020;7.772;2023-12-22T10:49:36;11.27;;;5.70;;
19664;SDS011;9980;51.020;7.772;2023-12-22T10:52:04;16.67;;;6.30;;
19664;SDS011;9980;51.020;7.772;2023-12-22T10:54:31;9.93;;;5.53;;
19664;SDS011;9980;51.020;7.772;2023-12-22T10:56:58;8.70;;;5.57;;
19664;SDS011;9980;51.020;7.772;2023-12-22T10:59:29;11.97;;;6.30;;
19664;SDS011;9980;51.020;7.772;2023-12-22T11:01:57;7.37;;;5.07;;
19664;SDS011;9980;51.020;7.772;2023-12-22T11:04:29;11.93;;;5.07;;
19664;SDS011;9980;51.020;7.772;2023-12-22T11:07:01;9.90;;;5.10;;
19664;SDS011;9980;51.020;7.772;2023-12-22T11:09:31;8.23;;;5.30;;
19664;SDS011;9980;51.020;7.772;2023-12-22T11:12:01;7.57;;;4.67;;
19664;SDS011;9980;51.020;7.772;2023-12-22T11:14:29;7.07;;;3.97;;
19664;SDS011;9980;51.020;7.772;2023-12-22T11:16:59;4.20;;;3.73;;
19664;SDS011;9980;51.020;7.772;2023-12-22T11:19:28;6.53;;;3.97;;
19664;SDS011;9980;51.020;7.772;2023-12-22T11:21:58;7.67;;;4.00;;
19664;SDS011;9980;51.020;7.772;2023-12-22T11:24:25;4.63;;;3.13;;
19664;SDS011;9980;51.020;7.772;2023-12-22T11:26:57;12.53;;;8.37;;
19664;SDS011;9980;51.020;7.772;2023-12-22T11:29:26;13.23;;;9.87;;
19664;SDS011;9980;51.020;7.772;2023-12-22T11:31:54;7.03;;;5.17;;
19664;SDS011;9980;51.020;7.772;2023-12-22T11:34:24;3.60;;;3.03;;
19664;SDS011;9980;51.020;7.772;2023-12-22T11:36:55;4.10;;;3.77;;
19664;SDS011;9980;51.020;7.772;2023-12-22T11:39:23;3.23;;;2.93;;
19664;SDS011;9980;51.020;7.772;2023-12-22T11:41:51;2.50;;;2.30;;
19664;SDS011;9980;51.020;7.772;2023-12-22T11:44:21;3.30;;;2.93;;
19664;SDS011;9980;51.020;7.772;2023-12-22T11:46:49;2.10;;;2.00;;
19664;SDS011;9980;51.020;7.772;2023-12-22T11:49:33;3.23;;;2.03;;
19664;SDS011;9980;51.020;7.772;2023-12-22T11:52:11;2.50;;;2.40;;
19664;SDS011;9980;51.020;7.772;2023-12-22T11:54:51;2.87;;;2.40;;
19664;SDS011;9980;51.020;7.772;2023-12-22T11:57:42;2.30;;;2.10;;
19664;SDS011;9980;51.020;7.772;2023-12-22T12:00:37;2.03;;;1.93;;
19664;SDS011;9980;51.020;7.772;2023-12-22T12:03:05;2.27;;;2.17;;
19664;SDS011;9980;51.020;7.772;2023-12-22T12:05:33;2.03;;;1.93;;
19664;SDS011;9980;51.020;7.772;2023-12-22T12:08:06;2.10;;;2.00;;
19664;SDS011;9980;51.020;7.772;2023-12-22T12:13:08;2.10;;;2.00;;
19664;SDS011;9980;51.020;7.772;2023-12-22T12:15:37;2.30;;;2.10;;
19664;SDS011;9980;51.020;7.772;2023-12-22T12:18:05;2.83;;;2.40;;
19664;SDS011;9980;51.020;7.772;2023-12-22T12:20:32;2.93;;;2.47;;
19664;SDS011;9980;51.020;7.772;2023-12-22T12:23:03;3.87;;;2.60;;
19664;SDS011;9980;51.020;7.772;2023-12-22T12:25:34;2.83;;;2.60;;
19664;SDS011;9980;51.020;7.772;2023-12-22T12:28:06;3.37;;;3.00;;
19664;SDS011;9980;51.020;7.772;2023-12-22T12:30:35;3.83;;;3.53;;
19664;SDS011;9980;51.020;7.772;2023-12-22T12:33:11;3.10;;;2.80;;
19664;SDS011;9980;51.020;7.772;2023-12-22T12:35:40;3.27;;;3.03;;
19664;SDS011;9980;51.020;7.772;2023-12-22T12:38:13;3.57;;;3.10;;
19664;SDS011;9980;51.020;7.772;2023-12-22T12:40:45;3.43;;;3.13;;
19664;SDS011;9980;51.020;7.772;2023-12-22T12:43:17;3.23;;;2.93;;
19664;SDS011;9980;51.020;7.772;2023-12-22T12:45:45;3.30;;;3.03;;
19664;SDS011;9980;51.020;7.772;2023-12-22T12:48:13;3.63;;;2.77;;
19664;SDS011;9980;51.020;7.772;2023-12-22T12:50:44;3.30;;;3.10;;
19664;SDS011;9980;51.020;7.772;2023-12-22T12:53:11;3.83;;;3.20;;
19664;SDS011;9980;51.020;7.772;2023-12-22T12:55:38;3.87;;;3.03;;
19664;SDS011;9980;51.020;7.772;2023-12-22T12:58:05;4.47;;;3.13;;
19664;SDS011;9980;51.020;7.772;2023-12-22T13:00:33;4.53;;;3.10;;
19664;SDS011;9980;51.020;7.772;2023-12-22T13:03:04;7.20;;;3.07;;
19664;SDS011;9980;51.020;7.772;2023-12-22T13:05:33;3.60;;;2.70;;
19664;SDS011;9980;51.020;7.772;2023-12-22T13:10:36;2.90;;;2.70;;
19664;SDS011;9980;51.020;7.772;2023-12-22T13:13:03;5.10;;;2.73;;
19664;SDS011;9980;51.020;7.772;2023-12-22T13:15:31;3.57;;;2.90;;
19664;SDS011;9980;51.020;7.772;2023-12-22T13:17:58;3.30;;;3.00;;
19664;SDS011;9980;51.020;7.772;2023-12-22T13:20:25;3.73;;;2.67;;
19664;SDS011;9980;51.020;7.772;2023-12-22T13:22:54;3.67;;;2.70;;
19664;SDS011;9980;51.020;7.772;2023-12-22T13:25:22;3.00;;;2.80;;
19664;SDS011;9980;51.020;7.772;2023-12-22T13:27:51;3.70;;;2.70;;
19664;SDS011;9980;51.020;7.772;2023-12-22T13:33:08;3.53;;;2.90;;
19664;SDS011;9980;51.020;7.772;2023-12-22T13:35:35;3.53;;;2.80;;
19664;SDS011;9980;51.020;7.772;2023-12-22T13:38:08;2.70;;;2.50;;
19664;SDS011;9980;51.020;7.772;2023-12-22T13:40:37;2.70;;;2.50;;
19664;SDS011;9980;51.020;7.772;2023-12-22T13:43:05;3.80;;;2.90;;
19664;SDS011;9980;51.020;7.772;2023-12-22T13:45:34;4.53;;;3.00;;
19664;SDS011;9980;51.020;7.772;2023-12-22T13:48:01;3.23;;;2.60;;
19664;SDS011;9980;51.020;7.772;2023-12-22T13:50:29;3.10;;;2.80;;
19664;SDS011;9980;51.020;7.772;2023-12-22T13:52:56;3.87;;;2.80;;
19664;SDS011;9980;51.020;7.772;2023-12-22T13:55:33;2.70;;;2.50;;
19664;SDS011;9980;51.020;7.772;2023-12-22T13:58:03;3.07;;;2.80;;
19664;SDS011;9980;51.020;7.772;2023-12-22T14:00:30;4.63;;;2.90;;
19664;SDS011;9980;51.020;7.772;2023-12-22T14:02:58;3.37;;;3.00;;
19664;SDS011;9980;51.020;7.772;2023-12-22T14:05:28;3.30;;;3.00;;
19664;SDS011;9980;51.020;7.772;2023-12-22T14:08:00;4.33;;;3.00;;
19664;SDS011;9980;51.020;7.772;2023-12-22T14:10:29;3.17;;;2.70;;
19664;SDS011;9980;51.020;7.772;2023-12-22T14:12:57;3.77;;;2.60;;
19664;SDS011;9980;51.020;7.772;2023-12-22T14:15:24;8.03;;;5.93;;
19664;SDS011;9980;51.020;7.772;2023-12-22T14:18:07;4.63;;;3.17;;
19664;SDS011;9980;51.020;7.772;2023-12-22T14:20:34;2.90;;;2.70;;
19664;SDS011;9980;51.020;7.772;2023-12-22T14:23:01;3.37;;;3.10;;
19664;SDS011;9980;51.020;7.772;2023-12-22T14:25:28;3.63;;;2.60;;
19664;SDS011;9980;51.020;7.772;2023-12-22T14:27:55;3.83;;;2.80;;
19664;SDS011;9980;51.020;7.772;2023-12-22T14:30:23;2.90;;;2.70;;
19664;SDS011;9980;51.020;7.772;2023-12-22T14:32:50;2.20;;;2.00;;
19664;SDS011;9980;51.020;7.772;2023-12-22T14:35:17;2.53;;;2.23;;
19664;SDS011;9980;51.020;7.772;2023-12-22T14:37:44;2.30;;;2.17;;
19664;SDS011;9980;51.020;7.772;2023-12-22T14:40:12;2.67;;;2.40;;
19664;SDS011;9980;51.020;7.772;2023-12-22T14:42:39;4.03;;;2.50;;
19664;SDS011;9980;51.020;7.772;2023-12-22T14:45:06;2.90;;;2.30;;
19664;SDS011;9980;51.020;7.772;2023-12-22T14:47:33;3.27;;;2.63;;
19664;SDS011;9980;51.020;7.772;2023-12-22T14:50:02;3.57;;;2.50;;
19664;SDS011;9980;51.020;7.772;2023-12-22T14:52:30;4.77;;;2.60;;
19664;SDS011;9980;51.020;7.772;2023-12-22T14:55:01;3.83;;;2.53;;
19664;SDS011;9980;51.020;7.772;2023-12-22T14:57:30;4.73;;;2.80;;
19664;SDS011;9980;51.020;7.772;2023-12-22T14:59:57;2.67;;;2.40;;
19664;SDS011;9980;51.020;7.772;2023-12-22T15:02:24;2.93;;;2.40;;
19664;SDS011;9980;51.020;7.772;2023-12-22T15:04:51;3.87;;;2.40;;
19664;SDS011;9980;51.020;7.772;2023-12-22T15:07:19;3.17;;;2.40;;
19664;SDS011;9980;51.020;7.772;2023-12-22T15:09:46;3.07;;;2.50;;
19664;SDS011;9980;51.020;7.772;2023-12-22T15:12:15;4.80;;;2.60;;
19664;SDS011;9980;51.020;7.772;2023-12-22T15:14:45;3.30;;;3.03;;